Flying Circus — 2CLI8 — position and weather

sailwx.info

Track history (hours):
 
Tides and Currents Weather Stations Pressure Air Temp Water Temp Dewpoint Dewpoint Depression Visibility Wind Speed Wind Dir Waves Ship Positions

Flying Circus

Last reported at 2017-Sep-27 12:23 UTC. Time now 2017-Oct-16 22:36 UTC.
Position N 39°16' E 003°04'.
Warning: this ship's position is 19 days out of date.

Length 9 m.

MMSI: 235073777.

Date/timePositionNaut miles runAvg speedWind from/ knotsBaromVisibWave heightAir tempDewpointWater temp
2017-Sep-27 12:23N 39°16' E 003°04'2 4.0
2017-Sep-27 12:00N 39°15' E 003°02'2 3.6
2017-Sep-27 11:24N 39°17' E 003°01'2 3.0
2017-Sep-27 10:50N 39°19' E 003°00'0 0.0
2017-Sep-26 16:17N 39°19' E 003°00'1 2.1
2017-Sep-26 16:00N 39°18' E 002°60'2 3.8
2017-Sep-26 15:30N 39°19' E 002°57'3 5.5
2017-Sep-26 15:00N 39°19' E 002°54'3 5.9
2017-Sep-26 14:30N 39°20' E 002°50'3 5.1
2017-Sep-26 13:54N 39°21' E 002°46'2 4.9
2017-Sep-26 13:30N 39°22' E 002°44'2 4.4
2017-Sep-26 13:00N 39°22' E 002°41'2 5.0
2017-Sep-26 12:30N 39°23' E 002°38'2 3.2
2017-Sep-26 12:00N 39°24' E 002°36'3 5.0
2017-Sep-26 11:30N 39°25' E 002°33'3 5.2
2017-Sep-26 10:59N 39°26' E 002°30'3 4.8
2017-Sep-26 10:26N 39°27' E 002°27'3 5.8
2017-Sep-26 09:59N 39°29' E 002°25'3 0.1
2017-Sep-24 14:50N 39°31' E 002°27'1 3.7
2017-Sep-24 14:28N 39°30' E 002°27'4 3.7
2017-Sep-24 13:17N 39°27' E 002°31'1 2.9
2017-Sep-24 12:59N 39°28' E 002°32'1 3.0
2017-Sep-24 12:30N 39°29' E 002°33'2 4.7
2017-Sep-24 12:00N 39°30' E 002°35'3 6.3
2017-Sep-24 11:30N 39°30' E 002°39'3 5.9
2017-Sep-24 11:00N 39°30' E 002°43'  
2017-Sep-21 12:41N 39°21' E 002°51'1 6.1
2017-Sep-21 12:28N 39°20' E 002°51'2 5.2
2017-Sep-21 12:00N 39°19' E 002°54'3 5.5
2017-Sep-21 11:29N 39°18' E 002°58'4 4.5
2017-Sep-21 10:42N 39°16' E 003°02'  
Track history (hours):
 
Tides and Currents Weather Stations Pressure Air Temp Water Temp Dewpoint Dewpoint Depression Visibility Wind Speed Wind Dir Waves Ship Positions

Flying Circus

Last reported at 2017-Sep-27 12:23 UTC. Time now 2017-Oct-16 22:36 UTC.
Position N 39°16' E 003°04'.
Warning: this ship's position is 19 days out of date.

Length 9 m.

MMSI: 235073777.

Date/timePositionNaut miles runAvg speedWind from/ knotsBaromVisibWave heightAir tempDewpointWater temp
2017-Sep-27 12:23N 39°16' E 003°04'2 4.0
2017-Sep-27 12:00N 39°15' E 003°02'2 3.6
2017-Sep-27 11:24N 39°17' E 003°01'2 3.0
2017-Sep-27 10:50N 39°19' E 003°00'0 0.0
2017-Sep-26 16:17N 39°19' E 003°00'1 2.1
2017-Sep-26 16:00N 39°18' E 002°60'2 3.8
2017-Sep-26 15:30N 39°19' E 002°57'3 5.5
2017-Sep-26 15:00N 39°19' E 002°54'3 5.9
2017-Sep-26 14:30N 39°20' E 002°50'3 5.1
2017-Sep-26 13:54N 39°21' E 002°46'2 4.9
2017-Sep-26 13:30N 39°22' E 002°44'2 4.4
2017-Sep-26 13:00N 39°22' E 002°41'2 5.0
2017-Sep-26 12:30N 39°23' E 002°38'2 3.2
2017-Sep-26 12:00N 39°24' E 002°36'3 5.0
2017-Sep-26 11:30N 39°25' E 002°33'3 5.2
2017-Sep-26 10:59N 39°26' E 002°30'3 4.8
2017-Sep-26 10:26N 39°27' E 002°27'3 5.8
2017-Sep-26 09:59N 39°29' E 002°25'3 0.1
2017-Sep-24 14:50N 39°31' E 002°27'1 3.7
2017-Sep-24 14:28N 39°30' E 002°27'4 3.7
2017-Sep-24 13:17N 39°27' E 002°31'1 2.9
2017-Sep-24 12:59N 39°28' E 002°32'1 3.0
2017-Sep-24 12:30N 39°29' E 002°33'2 4.7
2017-Sep-24 12:00N 39°30' E 002°35'3 6.3
2017-Sep-24 11:30N 39°30' E 002°39'3 5.9
2017-Sep-24 11:00N 39°30' E 002°43'  
2017-Sep-21 12:41N 39°21' E 002°51'1 6.1
2017-Sep-21 12:28N 39°20' E 002°51'2 5.2
2017-Sep-21 12:00N 39°19' E 002°54'3 5.5
2017-Sep-21 11:29N 39°18' E 002°58'4 4.5
2017-Sep-21 10:42N 39°16' E 003°02'  

Dump ship's entire track history